Time;durP1;ratioP1;P1;durP2;ratioP2;P2;SDS_P1;SDS_P2;PMS_P1;PMS_P2;Temp;Humidity;BMP_temperature;BMP_pressure;BME280_temperature;BME280_humidity;BME280_pressure;Samples;Min_cycle;Max_cycle;Signal;HPM_P1;HPM_P2
2022/02/28 00:02:34;;;;;;;9.45;3.75;;;;;;;0.46;100.00;103124.81;6131976;29;20151;-77
2022/02/28 00:05:36;;;;;;;12.57;3.80;;;;;;;0.45;100.00;103128.19;6131123;28;20056;-78
2022/02/28 00:08:37;;;;;;;5.53;3.53;;;;;;;0.34;100.00;103125.34;6140365;29;20050;-77
2022/02/28 00:11:40;;;;;;;11.48;3.80;;;;;;;0.28;100.00;103121.72;6128100;29;20059;-78
2022/02/28 00:14:41;;;;;;;11.32;4.47;;;;;;;0.27;100.00;103122.53;6132023;29;20055;-77
2022/02/28 00:17:42;;;;;;;10.68;3.75;;;;;;;0.27;100.00;103125.97;6136059;28;20043;-77
2022/02/28 00:20:44;;;;;;;7.85;3.22;;;;;;;0.26;100.00;103124.25;6137645;28;20044;-77
2022/02/28 00:23:45;;;;;;;6.35;3.22;;;;;;;0.28;100.00;103120.00;6151265;28;20051;-77
2022/02/28 00:26:48;;;;;;;7.95;4.03;;;;;;;0.32;100.00;103113.19;6151535;28;20047;-77
2022/02/28 00:29:49;;;;;;;7.57;3.70;;;;;;;0.31;100.00;103117.47;6143683;28;20051;-77
2022/02/28 00:32:51;;;;;;;6.95;3.75;;;;;;;0.36;100.00;103115.00;6134176;29;20494;-77
2022/02/28 00:35:52;;;;;;;13.05;5.20;;;;;;;0.38;100.00;103116.81;6136975;28;20055;-78
2022/02/28 00:38:54;;;;;;;14.90;4.30;;;;;;;0.37;100.00;103112.50;6144032;28;20051;-77
2022/02/28 00:41:57;;;;;;;12.35;4.25;;;;;;;0.32;100.00;103111.50;6142119;28;20043;-78
2022/02/28 00:44:58;;;;;;;6.65;3.78;;;;;;;0.31;100.00;103114.03;6151163;28;20051;-77
2022/02/28 00:47:59;;;;;;;6.68;3.30;;;;;;;0.31;100.00;103112.31;6141927;28;20047;-77
2022/02/28 00:51:01;;;;;;;9.63;4.38;;;;;;;0.27;100.00;103113.06;6149788;28;20054;-77
2022/02/28 00:54:03;;;;;;;8.05;4.55;;;;;;;0.22;100.00;103104.31;6137941;28;20399;-78
2022/02/28 00:57:06;;;;;;;7.00;3.83;;;;;;;0.14;100.00;103095.47;6136295;29;20051;-77
2022/02/28 01:00:10;;;;;;;7.55;4.03;;;;;;;0.11;100.00;103098.84;6141157;28;20055;-78
2022/02/28 01:03:12;;;;;;;7.53;3.65;;;;;;;0.13;100.00;103099.75;6133913;28;20515;-78
2022/02/28 01:06:13;;;;;;;6.90;3.17;;;;;;;0.11;100.00;103097.97;6125766;29;20055;-77
2022/02/28 01:09:15;;;;;;;9.30;4.28;;;;;;;0.06;100.00;103095.25;6127080;28;20047;-77
2022/02/28 01:12:19;;;;;;;12.00;4.40;;;;;;;0.06;100.00;103099.56;6137169;28;20069;-78
2022/02/28 01:15:21;;;;;;;8.15;3.47;;;;;;;0.04;100.00;103096.03;6126659;28;20048;-77
2022/02/28 01:18:23;;;;;;;3.60;2.65;;;;;;;-0.01;100.00;103088.16;6130910;29;20078;-77
2022/02/28 01:21:24;;;;;;;4.20;2.63;;;;;;;-0.02;100.00;103094.16;6119441;28;20496;-77
2022/02/28 01:24:26;;;;;;;6.25;3.88;;;;;;;-0.02;100.00;103094.16;6122974;28;20063;-77
2022/02/28 01:27:28;;;;;;;7.85;3.67;;;;;;;-0.05;100.00;103086.31;6120010;28;20941;-77
2022/02/28 01:30:30;;;;;;;8.50;3.97;;;;;;;-0.06;100.00;103090.59;6117101;29;20059;-77
2022/02/28 01:33:32;;;;;;;9.27;3.97;;;;;;;-0.09;100.00;103082.78;6125335;28;20526;-77
2022/02/28 01:36:34;;;;;;;9.02;4.05;;;;;;;-0.15;100.00;103081.72;6139350;28;20065;-78
2022/02/28 01:39:35;;;;;;;7.00;4.10;;;;;;;-0.13;100.00;103083.53;6118138;29;20063;-77
2022/02/28 01:42:38;;;;;;;9.57;3.88;;;;;;;-0.08;100.00;103083.66;6121417;28;20056;-77
2022/02/28 01:45:40;;;;;;;6.03;3.60;;;;;;;-0.11;100.00;103093.91;6123437;29;20070;-77
2022/02/28 01:48:41;;;;;;;9.25;3.80;;;;;;;-0.13;100.00;103090.41;6124854;29;20051;-77
2022/02/28 01:51:42;;;;;;;9.40;4.22;;;;;;;-0.15;100.00;103087.75;6123773;29;20058;-78
2022/02/28 01:54:45;;;;;;;9.43;4.28;;;;;;;-0.21;100.00;103085.03;6124280;28;20047;-77
2022/02/28 01:57:49;;;;;;;12.00;5.00;;;;;;;-0.22;100.00;103091.03;6122629;28;20051;-78
2022/02/28 02:00:50;;;;;;;8.38;2.95;;;;;;;-0.16;100.00;103080.84;6123689;29;20422;-78
2022/02/28 02:03:52;;;;;;;6.88;3.53;;;;;;;-0.13;100.00;103087.84;6127017;28;20048;-77
2022/02/28 02:06:53;;;;;;;7.25;4.10;;;;;;;-0.10;100.00;103082.72;6124343;29;20052;-78
2022/02/28 02:09:56;;;;;;;9.23;4.07;;;;;;;-0.11;100.00;103081.84;6120548;29;20071;-77
2022/02/28 02:13:00;;;;;;;10.60;4.30;;;;;;;-0.14;100.00;103081.75;6128236;28;20062;-77
2022/02/28 02:16:02;;;;;;;10.85;4.38;;;;;;;-0.20;100.00;103078.13;6134090;29;20058;-77
2022/02/28 02:19:03;;;;;;;17.48;4.50;;;;;;;-0.21;100.00;103076.41;6141965;28;20054;-77
2022/02/28 02:22:06;;;;;;;10.80;3.78;;;;;;;-0.25;100.00;103083.16;6138164;29;20446;-77
2022/02/28 02:25:08;;;;;;;6.35;3.50;;;;;;;-0.30;100.00;103079.59;6138670;28;20442;-77
2022/02/28 02:28:12;;;;;;;10.55;4.70;;;;;;;-0.36;100.00;103082.00;6148323;29;20052;-77
2022/02/28 02:31:13;;;;;;;7.93;3.67;;;;;;;-0.40;100.00;103082.75;6140289;28;20075;-78
2022/02/28 02:34:15;;;;;;;5.97;3.30;;;;;;;-0.42;100.00;103082.66;6141664;29;20418;-78
2022/02/28 02:37:17;;;;;;;7.68;4.30;;;;;;;-0.42;100.00;103077.50;6135086;28;20521;-77
2022/02/28 02:40:19;;;;;;;14.85;4.32;;;;;;;-0.38;100.00;103071.59;6135287;28;20044;-77
2022/02/28 02:43:20;;;;;;;10.27;4.90;;;;;;;-0.37;100.00;103082.81;6141864;28;20052;-77
2022/02/28 02:46:22;;;;;;;10.15;4.22;;;;;;;-0.43;100.00;103083.50;6139793;28;20051;-77
2022/02/28 02:49:23;;;;;;;11.05;4.50;;;;;;;-0.48;100.00;103076.47;6142466;28;20059;-77
2022/02/28 02:52:26;;;;;;;6.70;3.15;;;;;;;-0.52;100.00;103078.94;6130885;28;20430;-77
2022/02/28 02:55:27;;;;;;;7.53;3.50;;;;;;;-0.59;100.00;103083.88;6129831;28;20400;-77
2022/02/28 02:58:29;;;;;;;9.77;3.92;;;;;;;-0.64;100.00;103082.84;6131700;28;20049;-77
2022/02/28 03:01:30;;;;;;;10.00;4.35;;;;;;;-0.64;100.00;103080.28;6135882;28;20058;-76
2022/02/28 03:04:31;;;;;;;8.85;4.10;;;;;;;-0.65;100.00;103078.53;6142133;28;20052;-78
2022/02/28 03:07:34;;;;;;;11.75;4.57;;;;;;;-0.64;100.00;103085.44;6142529;28;20051;-76
2022/02/28 03:10:35;;;;;;;6.43;3.35;;;;;;;-0.65;100.00;103086.28;6142504;28;20392;-77
2022/02/28 03:13:37;;;;;;;6.68;4.28;;;;;;;-0.67;100.00;103086.25;6142134;28;20055;-77
2022/02/28 03:16:39;;;;;;;8.00;4.13;;;;;;;-0.67;100.00;103096.56;6134765;28;20063;-77
2022/02/28 03:19:40;;;;;;;7.47;4.03;;;;;;;-0.69;100.00;103089.59;6134231;28;20044;-78
2022/02/28 03:22:43;;;;;;;8.63;3.95;;;;;;;-0.73;100.00;103087.75;6145958;28;20052;-78
2022/02/28 03:25:44;;;;;;;9.18;4.25;;;;;;;-0.73;100.00;103082.56;6130065;29;20055;-77
2022/02/28 03:28:46;;;;;;;7.82;4.30;;;;;;;-0.74;100.00;103086.00;6138669;28;20043;-77
2022/02/28 03:31:47;;;;;;;9.73;4.30;;;;;;;-0.76;100.00;103080.78;6143817;28;20496;-77
2022/02/28 03:34:48;;;;;;;5.85;3.63;;;;;;;-0.77;100.00;103089.38;6138657;29;20048;-78
2022/02/28 03:37:51;;;;;;;7.85;3.72;;;;;;;-0.81;100.00;103082.34;6140343;29;20400;-77
2022/02/28 03:40:53;;;;;;;10.45;3.83;;;;;;;-0.83;100.00;103084.88;6142196;29;20043;-77
2022/02/28 03:43:54;;;;;;;8.60;4.75;;;;;;;-0.82;100.00;103084.06;6131936;28;20062;-77
2022/02/28 03:46:55;;;;;;;9.35;3.90;;;;;;;-0.77;100.00;103084.22;6120768;28;20057;-77
2022/02/28 03:49:57;;;;;;;8.77;4.20;;;;;;;-0.80;100.00;103081.53;6130430;28;20055;-77
2022/02/28 03:52:59;;;;;;;8.85;4.28;;;;;;;-0.79;100.00;103080.69;6127047;28;20059;-77
2022/02/28 03:56:01;;;;;;;9.00;4.13;;;;;;;-0.82;100.00;103081.50;6125136;28;20052;-77
2022/02/28 03:59:03;;;;;;;6.85;3.45;;;;;;;-0.81;100.00;103083.22;6125518;28;20052;-77
2022/02/28 04:02:04;;;;;;;6.97;4.15;;;;;;;-0.83;100.00;103078.84;6139944;29;20044;-77
2022/02/28 04:05:06;;;;;;;6.53;3.10;;;;;;;-0.84;100.00;103079.66;6140031;29;20051;-77
2022/02/28 04:08:09;;;;;;;9.70;5.03;;;;;;;-0.82;100.00;103080.59;6137502;28;20055;-78
2022/02/28 04:11:10;;;;;;;10.00;4.45;;;;;;;-0.82;100.00;103075.41;6149625;29;20043;-78
2022/02/28 04:14:12;;;;;;;7.75;3.55;;;;;;;-0.86;100.00;103077.06;6142838;28;20059;-77
2022/02/28 04:17:14;;;;;;;8.38;3.58;;;;;;;-0.88;100.00;103081.28;6138643;29;20507;-78
2022/02/28 04:20:15;;;;;;;14.23;4.95;;;;;;;-0.89;100.00;103076.06;6139427;29;20052;-78
2022/02/28 04:23:18;;;;;;;8.85;4.47;;;;;;;-0.89;100.00;103073.50;6147178;29;20670;-78
2022/02/28 04:26:20;;;;;;;6.72;3.63;;;;;;;-0.91;100.00;103073.47;6125153;28;20058;-78
2022/02/28 04:29:21;;;;;;;10.90;4.45;;;;;;;-0.93;100.00;103074.22;6126144;29;20051;-77
2022/02/28 04:32:23;;;;;;;8.05;4.57;;;;;;;-0.96;100.00;103069.81;6136183;28;20056;-77
2022/02/28 04:35:24;;;;;;;6.95;4.35;;;;;;;-0.94;100.00;103072.47;6141743;28;20051;-78
2022/02/28 04:38:27;;;;;;;8.10;4.13;;;;;;;-0.93;100.00;103079.38;6121627;29;20392;-77
2022/02/28 04:41:28;;;;;;;11.73;4.80;;;;;;;-0.97;100.00;103070.66;6119921;28;20043;-78
2022/02/28 04:44:31;;;;;;;8.10;4.38;;;;;;;-1.00;100.00;103067.09;6128812;29;20423;-78
2022/02/28 04:47:32;;;;;;;10.25;3.90;;;;;;;-1.05;100.00;103069.53;6142271;28;20062;-78
2022/02/28 04:50:34;;;;;;;8.98;3.90;;;;;;;-1.09;100.00;103063.44;6127748;28;20048;-78
2022/02/28 04:53:36;;;;;;;8.18;4.07;;;;;;;-1.10;100.00;103064.22;6136293;28;20051;-78
2022/02/28 04:56:38;;;;;;;10.00;3.92;;;;;;;-1.08;100.00;103064.28;6138940;28;20055;-77
2022/02/28 04:59:39;;;;;;;8.13;4.45;;;;;;;-1.02;100.00;103064.47;6135695;29;20707;-77
2022/02/28 05:02:40;;;;;;;9.52;4.07;;;;;;;-0.99;100.00;103064.59;6136921;29;20055;-77
2022/02/28 05:05:42;;;;;;;12.73;5.68;;;;;;;-0.97;100.00;103073.25;6142448;28;20047;-78
2022/02/28 05:08:45;;;;;;;6.95;3.72;;;;;;;-0.97;100.00;103067.22;6142488;28;20051;-78
2022/02/28 05:11:46;;;;;;;10.93;5.05;;;;;;;-1.02;100.00;103065.34;6148668;28;20051;-78
2022/02/28 05:14:47;;;;;;;8.80;3.90;;;;;;;-1.04;100.00;103074.75;6140924;28;20576;-78
2022/02/28 05:17:49;;;;;;;13.55;5.05;;;;;;;-1.07;100.00;103072.06;6137870;28;20047;-78
2022/02/28 05:20:50;;;;;;;9.43;4.80;;;;;;;-1.05;100.00;103070.41;6140842;29;20051;-78
2022/02/28 05:23:53;;;;;;;11.23;4.45;;;;;;;-1.03;100.00;103070.47;6131827;28;20047;-78
2022/02/28 05:26:54;;;;;;;7.97;4.45;;;;;;;-1.07;100.00;103069.50;6133869;28;20048;-77
2022/02/28 05:29:55;;;;;;;10.00;4.05;;;;;;;-1.10;100.00;103071.97;6128534;28;20047;-77
2022/02/28 05:32:56;;;;;;;11.95;4.50;;;;;;;-1.09;100.00;103062.53;6119604;28;20052;-78
2022/02/28 05:35:58;;;;;;;8.50;3.92;;;;;;;-1.12;100.00;103072.75;6135024;29;20052;-77
2022/02/28 05:39:00;;;;;;;8.77;4.10;;;;;;;-1.13;100.00;103077.06;6145841;29;20434;-78
2022/02/28 05:42:02;;;;;;;6.40;4.22;;;;;;;-1.16;100.00;103069.19;6132699;28;20054;-78
2022/02/28 05:45:04;;;;;;;7.45;4.07;;;;;;;-1.19;100.00;103076.84;6136436;28;20054;-78
2022/02/28 05:48:06;;;;;;;8.50;4.05;;;;;;;-1.21;100.00;103072.47;6132553;28;20054;-78
2022/02/28 05:51:08;;;;;;;14.63;5.38;;;;;;;-1.23;100.00;103074.09;6139365;29;20510;-78
2022/02/28 05:54:10;;;;;;;7.22;3.55;;;;;;;-1.25;100.00;103071.47;6152445;28;20063;-78
2022/02/28 05:57:12;;;;;;;9.38;4.53;;;;;;;-1.28;100.00;103072.25;6138888;28;20058;-77
2022/02/28 06:00:14;;;;;;;9.80;3.92;;;;;;;-1.30;100.00;103079.06;6145029;29;20431;-77
2022/02/28 06:03:15;;;;;;;6.93;3.80;;;;;;;-1.31;100.00;103084.19;6142309;28;20455;-78
2022/02/28 06:06:16;;;;;;;10.95;4.65;;;;;;;-1.33;100.00;103078.97;6153191;29;20062;-78
2022/02/28 06:09:19;;;;;;;7.78;3.55;;;;;;;-1.37;100.00;103074.53;6151851;28;20051;-78
2022/02/28 06:12:20;;;;;;;9.70;3.90;;;;;;;-1.37;100.00;103069.34;6114593;29;20059;-77
2022/02/28 06:15:22;;;;;;;9.10;4.68;;;;;;;-1.37;100.00;103077.09;6171777;28;20055;-78
2022/02/28 06:18:23;;;;;;;8.45;4.85;;;;;;;-1.40;100.00;103079.59;6130673;29;20052;-77
2022/02/28 06:21:24;;;;;;;6.78;4.38;;;;;;;-1.40;100.00;103071.00;6129311;29;20043;-78
2022/02/28 06:24:27;;;;;;;7.07;4.57;;;;;;;-1.40;100.00;103066.69;6137408;29;20051;-78
2022/02/28 06:27:28;;;;;;;7.00;3.80;;;;;;;-1.39;100.00;103065.00;6172232;28;20056;-78
2022/02/28 06:30:30;;;;;;;8.55;5.28;;;;;;;-1.37;100.00;103068.50;6218882;28;20053;-79
2022/02/28 06:33:32;;;;;;;10.55;5.50;;;;;;;-1.35;100.00;103067.72;6173490;28;20047;-79
2022/02/28 06:36:34;;;;;;;8.18;4.65;;;;;;;-1.35;100.00;103077.19;6128191;29;20048;-78
2022/02/28 06:39:37;;;;;;;9.45;5.18;;;;;;;-1.36;100.00;103083.16;6142112;28;20052;-79
2022/02/28 06:42:38;;;;;;;11.02;3.55;;;;;;;-1.37;100.00;103079.69;6137787;29;20047;-79
2022/02/28 06:45:40;;;;;;;6.93;4.45;;;;;;;-1.35;100.00;103090.06;6125611;29;20054;-79
2022/02/28 06:48:41;;;;;;;10.80;5.53;;;;;;;-1.33;100.00;103076.38;6120821;28;20066;-79
2022/02/28 06:51:42;;;;;;;10.45;4.78;;;;;;;-1.29;100.00;103079.94;6129729;29;20822;-79
2022/02/28 06:54:45;;;;;;;7.82;3.53;;;;;;;-1.27;100.00;103078.31;6139660;29;20047;-79
2022/02/28 06:57:46;;;;;;;7.82;4.78;;;;;;;-1.26;100.00;103082.63;6137230;28;20055;-79
2022/02/28 07:00:48;;;;;;;10.70;3.75;;;;;;;-1.23;100.00;103082.72;6119361;29;20053;-80
2022/02/28 07:03:50;;;;;;;8.82;4.55;;;;;;;-1.19;100.00;103089.72;6111855;28;20055;-81
2022/02/28 07:06:52;;;;;;;7.70;4.60;;;;;;;-1.16;100.00;103087.25;6131404;29;20465;-81
2022/02/28 07:09:55;;;;;;;9.43;4.30;;;;;;;-1.12;100.00;103091.69;6138215;28;20074;-80
2022/02/28 07:12:56;;;;;;;9.65;4.05;;;;;;;-1.12;100.00;103094.28;6137697;28;20044;-79
2022/02/28 07:15:58;;;;;;;7.30;4.28;;;;;;;-1.10;100.00;103094.31;6138582;29;20055;-79
2022/02/28 07:19:00;;;;;;;8.82;4.25;;;;;;;-1.07;100.00;103084.09;6138032;28;20134;-79
2022/02/28 07:22:01;;;;;;;8.15;4.60;;;;;;;-0.99;100.00;103087.81;6124019;28;20082;-79
2022/02/28 07:25:05;;;;;;;7.32;4.00;;;;;;;-0.90;100.00;103097.56;6108438;29;20070;-78
2022/02/28 07:28:06;;;;;;;10.90;5.15;;;;;;;-0.82;100.00;103103.81;6125266;29;20062;-77
2022/02/28 07:31:07;;;;;;;9.48;4.40;;;;;;;-0.77;100.00;103105.75;6122040;28;20054;-79
2022/02/28 07:34:09;;;;;;;8.88;3.63;;;;;;;-0.72;100.00;103098.13;6133620;28;20411;-80
2022/02/28 07:37:11;;;;;;;7.35;4.05;;;;;;;-0.66;100.00;103100.91;6133165;28;20534;-82
2022/02/28 07:40:14;;;;;;;10.13;5.30;;;;;;;-0.61;100.00;103101.91;6158141;28;20044;-77
2022/02/28 07:43:16;;;;;;;9.13;4.40;;;;;;;-0.59;100.00;103104.53;6123519;28;20052;-79
2022/02/28 07:46:17;;;;;;;14.02;5.03;;;;;;;-0.55;100.00;103111.53;6125931;29;20052;-75
2022/02/28 07:49:19;;;;;;;10.63;4.47;;;;;;;-0.48;100.00;103110.91;6132169;29;20058;-76
2022/02/28 07:52:20;;;;;;;10.63;4.18;;;;;;;-0.38;100.00;103110.34;6139011;28;20059;-76
2022/02/28 07:55:23;;;;;;;10.00;4.45;;;;;;;-0.30;100.00;103106.28;6148040;28;20070;-76
2022/02/28 07:58:24;;;;;;;9.93;4.95;;;;;;;-0.25;100.00;103109.00;6146976;28;20048;-76
2022/02/28 08:01:26;;;;;;;9.20;4.22;;;;;;;-0.15;100.00;103116.19;6147168;28;20058;-76
2022/02/28 08:04:27;;;;;;;9.57;4.60;;;;;;;-0.09;100.00;103113.81;6147661;28;20051;-76
2022/02/28 08:07:29;;;;;;;11.15;5.00;;;;;;;-0.04;100.00;103113.94;6147722;28;20047;-75
2022/02/28 08:10:31;;;;;;;11.88;5.07;;;;;;;0.00;100.00;103123.53;6131584;28;20525;-75
2022/02/28 08:13:33;;;;;;;13.60;5.60;;;;;;;0.12;100.00;103125.56;6154721;28;20072;-76
2022/02/28 08:16:35;;;;;;;11.85;5.22;;;;;;;0.28;100.00;103126.88;6215454;28;20045;-75
2022/02/28 08:19:37;;;;;;;7.50;4.68;;;;;;;0.37;100.00;103130.59;6219953;28;20057;-75
2022/02/28 08:22:38;;;;;;;12.77;5.00;;;;;;;0.43;100.00;103128.16;6185758;28;20072;-75
2022/02/28 08:25:44;;;;;;;16.65;5.82;;;;;;;0.46;100.00;103130.84;6198635;28;20533;-75
2022/02/28 08:28:46;;;;;;;5.15;3.35;;;;;;;0.60;100.00;103143.28;6163347;28;20059;-75
2022/02/28 08:31:47;;;;;;;10.15;4.07;;;;;;;0.76;100.00;103128.16;6174794;28;20412;-75
2022/02/28 08:34:49;;;;;;;11.95;4.20;;;;;;;0.84;100.00;103136.13;6206101;28;20121;-75
2022/02/28 08:37:50;;;;;;;9.23;4.88;;;;;;;0.88;100.00;103124.16;6217804;28;20056;-76
2022/02/28 08:40:53;;;;;;;14.73;5.20;;;;;;;1.04;100.00;103127.97;6205228;28;20045;-75
2022/02/28 08:43:54;;;;;;;8.57;5.15;;;;;;;1.24;100.00;103129.34;6247154;28;20416;-75
2022/02/28 08:46:55;;;;;;;10.88;4.65;;;;;;;1.39;100.00;103132.28;6247151;28;20049;-75
2022/02/28 08:49:57;;;;;;;10.25;4.63;;;;;;;1.42;100.00;103127.19;6238119;28;20049;-75
2022/02/28 08:52:58;;;;;;;12.02;5.28;;;;;;;1.58;100.00;103136.16;6121662;28;20044;-74
2022/02/28 08:56:01;;;;;;;12.23;5.55;;;;;;;1.77;100.00;103127.97;6130975;29;20054;-74
2022/02/28 08:59:03;;;;;;;13.35;5.18;;;;;;;1.81;100.00;103138.38;6130405;28;20048;-76
2022/02/28 09:02:05;;;;;;;10.73;5.03;;;;;;;1.86;100.00;103135.03;6121683;29;20048;-71
2022/02/28 09:05:07;;;;;;;9.95;4.82;;;;;;;1.96;100.00;103137.00;6163803;28;20055;-74
2022/02/28 09:08:08;;;;;;;9.90;4.88;;;;;;;2.02;100.00;103131.94;6121549;29;20396;-74
2022/02/28 09:11:11;;;;;;;10.68;5.03;;;;;;;2.10;100.00;103141.59;6119898;29;20488;-74
2022/02/28 09:14:12;;;;;;;9.57;4.60;;;;;;;2.17;100.00;103136.53;6121319;29;20055;-75
2022/02/28 09:17:14;;;;;;;11.05;5.28;;;;;;;2.30;100.00;103140.25;6120322;29;20056;-74
2022/02/28 09:20:15;;;;;;;11.00;5.22;;;;;;;2.29;100.00;103130.72;6133683;28;20055;-74
2022/02/28 09:23:16;;;;;;;11.68;5.05;;;;;;;2.41;100.00;103130.97;6123999;28;20048;-74
2022/02/28 09:26:20;;;;;;;9.93;4.25;;;;;;;2.44;100.00;103128.41;6164280;28;20051;-74
2022/02/28 09:29:23;;;;;;;18.25;5.57;;;;;;;2.52;100.00;103132.03;6168242;28;20074;-74
2022/02/28 09:32:24;;;;;;;11.75;5.75;;;;;;;2.70;100.00;103131.50;6251119;28;20053;-75
2022/02/28 09:35:26;;;;;;;11.93;5.28;;;;;;;2.85;100.00;103140.41;6251625;28;20049;-74
2022/02/28 09:38:27;;;;;;;13.45;4.90;;;;;;;2.91;100.00;103132.72;6205788;28;20110;-74
2022/02/28 09:41:30;;;;;;;9.00;4.97;;;;;;;3.01;100.00;103140.69;6209252;28;20061;-74
2022/02/28 09:44:32;;;;;;;12.75;5.13;;;;;;;3.22;100.00;103142.75;6196057;28;20049;-75
2022/02/28 09:47:33;;;;;;;16.13;5.70;;;;;;;3.27;100.00;103135.00;6176693;28;20056;-74
2022/02/28 09:50:35;;;;;;;12.20;4.75;;;;;;;3.36;100.00;103134.28;6232145;28;20047;-74
2022/02/28 09:53:36;;;;;;;9.48;4.57;;;;;;;3.39;100.00;103123.94;6167726;28;20055;-75
2022/02/28 09:56:39;;;;;;;14.05;5.20;;;;;;;3.62;100.00;103127.75;6126294;29;20400;-75
2022/02/28 09:59:40;;;;;;;16.02;5.55;;;;;;;3.59;100.00;103126.81;6138287;28;20454;-74
2022/02/28 10:02:41;;;;;;;10.43;5.30;;;;;;;3.60;100.00;103124.25;6208962;28;20049;-74
2022/02/28 10:05:43;;;;;;;12.95;5.82;;;;;;;3.70;100.00;103127.84;6250575;28;20057;-75
2022/02/28 10:08:46;;;;;;;10.52;5.00;;;;;;;3.77;100.00;103121.88;6249376;28;20056;-75
2022/02/28 10:11:50;;;;;;;11.43;5.25;;;;;;;3.93;100.00;103121.22;6248283;28;20050;-74
2022/02/28 10:14:52;;;;;;;11.27;5.03;;;;;;;4.19;100.00;103118.94;6249365;28;20398;-74
2022/02/28 10:17:55;;;;;;;13.77;4.72;;;;;;;4.25;99.05;103115.53;6249719;28;20049;-74
2022/02/28 10:20:56;;;;;;;16.10;4.68;;;;;;;4.28;99.54;103121.63;6249437;28;20081;-74
2022/02/28 10:23:58;;;;;;;11.65;4.55;;;;;;;4.44;99.60;103125.25;6250427;28;20049;-74
2022/02/28 10:27:01;;;;;;;11.68;4.68;;;;;;;4.49;97.31;103114.91;6250420;28;20053;-74
2022/02/28 10:30:03;;;;;;;12.32;5.10;;;;;;;4.53;96.03;103124.50;6250094;28;20053;-74
2022/02/28 10:33:09;;;;;;;10.63;5.30;;;;;;;4.66;95.46;103120.28;6249769;28;20528;-74
2022/02/28 10:36:13;;;;;;;12.70;5.45;;;;;;;4.83;92.78;103122.19;6250016;28;20056;-74
2022/02/28 10:39:16;;;;;;;10.52;4.80;;;;;;;4.88;92.36;103129.16;6249253;28;20049;-75
2022/02/28 10:42:19;;;;;;;10.38;4.22;;;;;;;5.04;92.08;103118.88;6249618;28;20046;-75
2022/02/28 10:45:22;;;;;;;8.85;4.30;;;;;;;5.06;91.56;103114.56;6250061;28;20052;-75
2022/02/28 10:48:25;;;;;;;11.60;4.70;;;;;;;5.16;92.14;103123.31;6250101;28;20056;-75
2022/02/28 10:51:27;;;;;;;10.38;5.13;;;;;;;5.24;92.01;103116.41;6248988;28;20041;-74
2022/02/28 10:54:31;;;;;;;12.50;4.22;;;;;;;5.35;89.32;103119.97;6249863;28;20054;-76
2022/02/28 10:57:33;;;;;;;12.52;5.20;;;;;;;5.64;90.61;103111.47;6249693;28;20052;-76
2022/02/28 11:00:50;;;;;;;15.30;5.75;;;;;;;5.81;89.58;103109.81;6249385;28;20064;-76
2022/02/28 11:03:52;;;;;;;10.55;4.45;;;;;;;6.01;88.33;103109.03;6249672;28;20049;-76
2022/02/28 11:06:53;;;;;;;9.98;5.00;;;;;;;6.08;87.68;103105.56;6249759;28;20057;-76
2022/02/28 11:09:54;;;;;;;13.32;6.13;;;;;;;6.16;84.74;103100.38;6249331;28;20492;-76
2022/02/28 11:13:00;;;;;;;9.70;4.82;;;;;;;6.09;85.97;103096.91;6248955;28;20049;-76
2022/02/28 11:16:01;;;;;;;12.23;4.90;;;;;;;6.31;84.70;103093.47;6249593;28;20050;-76
2022/02/28 11:19:04;;;;;;;11.43;5.03;;;;;;;6.38;80.77;103099.56;6249189;28;20053;-76
2022/02/28 11:22:05;;;;;;;11.65;5.78;;;;;;;6.56;82.59;103083.06;6248775;28;20124;-77
2022/02/28 11:25:10;;;;;;;9.48;4.63;;;;;;;6.77;82.70;103085.69;6249176;28;20072;-76
2022/02/28 11:28:12;;;;;;;10.75;5.13;;;;;;;7.16;79.17;103077.81;6249050;28;20124;-76
2022/02/28 11:31:16;;;;;;;13.90;5.45;;;;;;;7.37;78.73;103077.75;6248477;28;20049;-76
2022/02/28 11:34:23;;;;;;;13.60;5.90;;;;;;;7.46;78.82;103076.88;6248895;28;20049;-76
2022/02/28 11:37:26;;;;;;;13.55;5.95;;;;;;;7.49;78.99;103087.31;6248923;28;20064;-76
2022/02/28 11:40:31;;;;;;;17.50;5.95;;;;;;;7.68;77.64;103094.25;6248380;28;20049;-76
2022/02/28 11:43:36;;;;;;;14.18;5.22;;;;;;;7.94;77.66;103093.25;6248714;28;20049;-76
2022/02/28 11:46:39;;;;;;;12.70;5.95;;;;;;;8.22;76.76;103092.25;6249013;28;20049;-76
2022/02/28 11:49:43;;;;;;;15.98;6.45;;;;;;;8.35;73.49;103086.03;6248371;28;20061;-78
2022/02/28 11:52:44;;;;;;;16.45;6.57;;;;;;;8.47;71.66;103090.38;6248317;28;20046;-76
2022/02/28 11:55:46;;;;;;;19.65;7.05;;;;;;;8.64;72.25;103091.13;6248554;28;20050;-76
2022/02/28 11:58:49;;;;;;;17.25;7.03;;;;;;;8.77;70.34;103085.78;6248470;28;20052;-78
2022/02/28 12:01:57;;;;;;;14.63;6.43;;;;;;;8.76;69.19;103091.91;6246751;28;20045;-76
2022/02/28 12:04:59;;;;;;;18.73;7.70;;;;;;;8.96;68.22;103084.75;6248150;28;20120;-76
2022/02/28 12:08:00;;;;;;;18.38;6.57;;;;;;;8.89;66.72;103086.53;6248310;28;20053;-76
2022/02/28 12:11:17;;;;;;;19.35;6.95;;;;;;;8.85;68.69;103084.81;6247487;28;20042;-76
2022/02/28 12:14:20;;;;;;;12.60;6.80;;;;;;;9.38;69.81;103072.94;6248067;28;20451;-76
2022/02/28 12:17:33;;;;;;;16.77;7.03;;;;;;;9.62;70.13;103070.91;6248179;28;20421;-77
2022/02/28 12:20:40;;;;;;;18.00;7.38;;;;;;;10.04;69.57;103071.28;6247660;28;20139;-77
2022/02/28 12:23:47;;;;;;;17.70;7.68;;;;;;;9.91;68.13;103065.31;6248186;28;20428;-77
2022/02/28 12:27:11;;;;;;;15.63;8.05;;;;;;;10.02;67.94;103062.53;6248821;28;20049;-77
2022/02/28 12:30:43;;;;;;;20.38;7.88;;;;;;;9.75;68.63;103069.88;6248690;28;20061;-76
2022/02/28 12:34:00;;;;;;;17.17;7.95;;;;;;;10.02;67.94;103073.91;6248165;28;20042;-76
2022/02/28 12:37:03;;;;;;;18.00;7.22;;;;;;;10.03;69.09;103072.16;6248509;28;20045;-77
2022/02/28 12:40:05;;;;;;;19.13;7.72;;;;;;;10.08;66.85;103065.06;6247066;28;20052;-76
2022/02/28 12:43:06;;;;;;;18.77;7.75;;;;;;;10.30;65.45;103069.16;6246716;28;20049;-76
2022/02/28 12:46:11;;;;;;;17.95;7.35;;;;;;;9.93;65.36;103066.16;6247254;28;20444;-76
2022/02/28 12:49:15;;;;;;;16.77;7.75;;;;;;;9.90;65.60;103072.31;6247257;28;20057;-75
2022/02/28 12:52:17;;;;;;;24.35;8.50;;;;;;;9.93;64.68;103066.16;6246529;28;20045;-76
2022/02/28 12:55:19;;;;;;;19.02;8.05;;;;;;;10.10;67.19;103064.16;6248143;28;20056;-76
2022/02/28 12:58:24;;;;;;;19.70;7.10;;;;;;;10.10;65.83;103064.16;6248266;28;20049;-75
2022/02/28 13:01:29;;;;;;;26.23;7.95;;;;;;;10.15;62.78;103071.97;6246891;28;20049;-76
2022/02/28 13:04:30;;;;;;;16.48;7.63;;;;;;;10.28;64.41;103056.94;6247511;28;20049;-76
2022/02/28 13:07:32;;;;;;;19.33;7.50;;;;;;;10.03;61.65;103052.00;6247548;28;20049;-76
2022/02/28 13:10:34;;;;;;;15.60;6.53;;;;;;;10.48;62.80;103046.09;6246787;28;20049;-75
2022/02/28 13:13:35;;;;;;;18.77;6.85;;;;;;;10.45;61.61;103049.66;6247948;28;20052;-76
2022/02/28 13:16:40;;;;;;;14.40;6.47;;;;;;;10.81;61.95;103042.94;6247935;28;20533;-76
2022/02/28 13:19:41;;;;;;;14.40;6.63;;;;;;;10.54;57.15;103031.13;6248062;28;20060;-76
2022/02/28 13:22:44;;;;;;;21.85;6.97;;;;;;;10.84;60.72;103036.72;6247661;28;20049;-76
2022/02/28 13:25:49;;;;;;;20.00;6.47;;;;;;;11.00;58.38;103037.34;6248677;28;20059;-76
2022/02/28 13:28:50;;;;;;;16.05;6.55;;;;;;;11.02;57.57;103031.13;6248591;28;20417;-76
2022/02/28 13:31:55;;;;;;;14.50;6.45;;;;;;;11.10;58.06;103036.28;6247304;28;20042;-74
2022/02/28 13:34:58;;;;;;;15.60;7.03;;;;;;;10.85;58.10;103022.69;6247865;28;20053;-76
2022/02/28 13:38:02;;;;;;;14.43;7.13;;;;;;;11.05;58.39;103017.06;6246973;28;20060;-76
2022/02/28 13:41:04;;;;;;;14.02;6.13;;;;;;;10.70;58.12;103012.44;6247787;28;20053;-76
2022/02/28 13:44:09;;;;;;;16.70;6.75;;;;;;;10.64;59.20;103003.78;6248206;28;20077;-76
2022/02/28 13:47:15;;;;;;;16.17;6.88;;;;;;;10.32;60.83;103008.69;6247995;28;20042;-76
2022/02/28 13:50:17;;;;;;;17.30;6.97;;;;;;;10.54;60.27;103002.19;6247641;28;20106;-76
2022/02/28 13:53:19;;;;;;;16.70;7.20;;;;;;;10.69;60.87;102995.81;6247742;28;20049;-76
2022/02/28 13:56:26;;;;;;;17.52;7.07;;;;;;;10.68;60.30;102995.84;6247714;28;20056;-76
2022/02/28 13:59:27;;;;;;;13.23;6.35;;;;;;;10.63;61.16;102988.91;6247361;28;20056;-76
2022/02/28 14:02:48;;;;;;;14.35;6.35;;;;;;;10.67;59.95;102989.69;6247399;28;20053;-75